sensor_id;sensor_type;location;lat;lon;timestamp;P1;durP1;ratioP1;P2;durP2;ratioP2
13335;SDS011;6737;51.480;11.962;2023-03-13T00:00:52;10.70;;;3.53;;
13335;SDS011;6737;51.480;11.962;2023-03-13T00:03:20;13.13;;;3.88;;
13335;SDS011;6737;51.480;11.962;2023-03-13T00:05:46;15.05;;;4.32;;
13335;SDS011;6737;51.480;11.962;2023-03-13T00:08:12;14.63;;;4.17;;
13335;SDS011;6737;51.480;11.962;2023-03-13T00:10:39;12.53;;;4.13;;
13335;SDS011;6737;51.480;11.962;2023-03-13T00:13:05;13.35;;;4.53;;
13335;SDS011;6737;51.480;11.962;2023-03-13T00:15:32;15.17;;;4.30;;
13335;SDS011;6737;51.480;11.962;2023-03-13T00:17:58;12.13;;;4.00;;
13335;SDS011;6737;51.480;11.962;2023-03-13T00:20:24;12.43;;;4.20;;
13335;SDS011;6737;51.480;11.962;2023-03-13T00:22:50;12.30;;;3.72;;
13335;SDS011;6737;51.480;11.962;2023-03-13T00:25:16;17.67;;;4.32;;
13335;SDS011;6737;51.480;11.962;2023-03-13T00:27:42;14.52;;;3.88;;
13335;SDS011;6737;51.480;11.962;2023-03-13T00:30:08;13.43;;;4.10;;
13335;SDS011;6737;51.480;11.962;2023-03-13T00:32:39;12.23;;;3.80;;
13335;SDS011;6737;51.480;11.962;2023-03-13T00:35:06;16.05;;;4.20;;
13335;SDS011;6737;51.480;11.962;2023-03-13T00:37:32;14.82;;;4.25;;
13335;SDS011;6737;51.480;11.962;2023-03-13T00:39:58;15.57;;;4.05;;
13335;SDS011;6737;51.480;11.962;2023-03-13T00:42:23;15.00;;;4.10;;
13335;SDS011;6737;51.480;11.962;2023-03-13T00:44:49;14.20;;;4.00;;
13335;SDS011;6737;51.480;11.962;2023-03-13T00:47:15;13.93;;;3.90;;
13335;SDS011;6737;51.480;11.962;2023-03-13T00:49:41;17.73;;;4.13;;
13335;SDS011;6737;51.480;11.962;2023-03-13T00:52:06;14.30;;;3.83;;
13335;SDS011;6737;51.480;11.962;2023-03-13T00:54:32;10.73;;;3.80;;
13335;SDS011;6737;51.480;11.962;2023-03-13T00:56:58;15.95;;;4.30;;
13335;SDS011;6737;51.480;11.962;2023-03-13T00:59:24;15.73;;;3.83;;
13335;SDS011;6737;51.480;11.962;2023-03-13T01:01:49;16.63;;;4.33;;
13335;SDS011;6737;51.480;11.962;2023-03-13T01:04:15;13.07;;;3.58;;
13335;SDS011;6737;51.480;11.962;2023-03-13T01:06:41;14.93;;;4.03;;
13335;SDS011;6737;51.480;11.962;2023-03-13T01:09:08;14.27;;;4.10;;
13335;SDS011;6737;51.480;11.962;2023-03-13T01:11:36;14.68;;;3.80;;
13335;SDS011;6737;51.480;11.962;2023-03-13T01:14:05;16.98;;;4.18;;
13335;SDS011;6737;51.480;11.962;2023-03-13T01:16:33;19.30;;;4.10;;
13335;SDS011;6737;51.480;11.962;2023-03-13T01:19:01;16.25;;;4.00;;
13335;SDS011;6737;51.480;11.962;2023-03-13T01:21:29;14.52;;;3.90;;
13335;SDS011;6737;51.480;11.962;2023-03-13T01:23:55;16.20;;;4.00;;
13335;SDS011;6737;51.480;11.962;2023-03-13T01:26:21;13.90;;;4.10;;
13335;SDS011;6737;51.480;11.962;2023-03-13T01:28:48;15.25;;;4.05;;
13335;SDS011;6737;51.480;11.962;2023-03-13T01:31:16;11.65;;;3.70;;
13335;SDS011;6737;51.480;11.962;2023-03-13T01:33:54;15.32;;;3.60;;
13335;SDS011;6737;51.480;11.962;2023-03-13T01:36:21;15.73;;;3.92;;
13335;SDS011;6737;51.480;11.962;2023-03-13T01:38:49;12.93;;;3.53;;
13335;SDS011;6737;51.480;11.962;2023-03-13T01:41:16;14.40;;;3.60;;
13335;SDS011;6737;51.480;11.962;2023-03-13T01:43:44;14.03;;;3.43;;
13335;SDS011;6737;51.480;11.962;2023-03-13T01:46:13;13.95;;;3.88;;
13335;SDS011;6737;51.480;11.962;2023-03-13T01:51:28;14.85;;;3.80;;
13335;SDS011;6737;51.480;11.962;2023-03-13T01:53:56;16.52;;;4.03;;
13335;SDS011;6737;51.480;11.962;2023-03-13T01:56:59;16.10;;;4.10;;
13335;SDS011;6737;51.480;11.962;2023-03-13T02:00:02;15.00;;;3.95;;
13335;SDS011;6737;51.480;11.962;2023-03-13T02:02:33;14.18;;;3.80;;
13335;SDS011;6737;51.480;11.962;2023-03-13T02:05:01;14.25;;;3.85;;
13335;SDS011;6737;51.480;11.962;2023-03-13T02:07:37;14.57;;;3.83;;
13335;SDS011;6737;51.480;11.962;2023-03-13T02:10:09;15.07;;;4.18;;
13335;SDS011;6737;51.480;11.962;2023-03-13T02:12:38;14.15;;;3.85;;
13335;SDS011;6737;51.480;11.962;2023-03-13T02:15:07;12.70;;;3.75;;
13335;SDS011;6737;51.480;11.962;2023-03-13T02:17:37;13.43;;;3.70;;
13335;SDS011;6737;51.480;11.962;2023-03-13T02:20:04;15.57;;;4.10;;
13335;SDS011;6737;51.480;11.962;2023-03-13T02:22:42;14.73;;;3.90;;
13335;SDS011;6737;51.480;11.962;2023-03-13T02:27:51;11.75;;;3.50;;
13335;SDS011;6737;51.480;11.962;2023-03-13T02:30:21;15.07;;;3.97;;
13335;SDS011;6737;51.480;11.962;2023-03-13T02:32:47;14.80;;;3.90;;
13335;SDS011;6737;51.480;11.962;2023-03-13T02:35:16;14.97;;;3.63;;
13335;SDS011;6737;51.480;11.962;2023-03-13T02:37:44;15.52;;;3.67;;
13335;SDS011;6737;51.480;11.962;2023-03-13T02:40:14;15.68;;;3.85;;
13335;SDS011;6737;51.480;11.962;2023-03-13T02:42:45;13.25;;;3.60;;
13335;SDS011;6737;51.480;11.962;2023-03-13T02:45:14;17.98;;;3.90;;
13335;SDS011;6737;51.480;11.962;2023-03-13T02:47:41;13.40;;;3.50;;
13335;SDS011;6737;51.480;11.962;2023-03-13T02:50:07;15.45;;;3.78;;
13335;SDS011;6737;51.480;11.962;2023-03-13T02:52:36;14.07;;;3.80;;
13335;SDS011;6737;51.480;11.962;2023-03-13T02:55:19;16.10;;;3.78;;
13335;SDS011;6737;51.480;11.962;2023-03-13T02:57:52;13.63;;;3.80;;
13335;SDS011;6737;51.480;11.962;2023-03-13T03:00:18;16.13;;;3.70;;
13335;SDS011;6737;51.480;11.962;2023-03-13T03:02:44;15.57;;;3.63;;
13335;SDS011;6737;51.480;11.962;2023-03-13T03:05:11;15.18;;;3.70;;
13335;SDS011;6737;51.480;11.962;2023-03-13T03:07:38;14.48;;;3.88;;
13335;SDS011;6737;51.480;11.962;2023-03-13T03:10:04;13.63;;;3.58;;
13335;SDS011;6737;51.480;11.962;2023-03-13T03:12:30;12.83;;;3.67;;
13335;SDS011;6737;51.480;11.962;2023-03-13T03:14:55;15.63;;;4.03;;
13335;SDS011;6737;51.480;11.962;2023-03-13T03:17:21;18.77;;;3.70;;
13335;SDS011;6737;51.480;11.962;2023-03-13T03:19:47;16.03;;;3.83;;
13335;SDS011;6737;51.480;11.962;2023-03-13T03:22:13;15.18;;;3.55;;
13335;SDS011;6737;51.480;11.962;2023-03-13T03:24:38;16.00;;;3.70;;
13335;SDS011;6737;51.480;11.962;2023-03-13T03:27:04;12.73;;;3.40;;
13335;SDS011;6737;51.480;11.962;2023-03-13T03:29:30;12.57;;;3.50;;
13335;SDS011;6737;51.480;11.962;2023-03-13T03:31:56;15.07;;;3.92;;
13335;SDS011;6737;51.480;11.962;2023-03-13T03:34:22;17.30;;;3.80;;
13335;SDS011;6737;51.480;11.962;2023-03-13T03:36:47;16.00;;;3.80;;
13335;SDS011;6737;51.480;11.962;2023-03-13T03:39:13;14.10;;;3.50;;
13335;SDS011;6737;51.480;11.962;2023-03-13T03:41:39;14.23;;;3.60;;
13335;SDS011;6737;51.480;11.962;2023-03-13T03:44:05;13.52;;;3.47;;
13335;SDS011;6737;51.480;11.962;2023-03-13T03:46:31;14.10;;;3.70;;
13335;SDS011;6737;51.480;11.962;2023-03-13T03:48:57;17.23;;;4.00;;
13335;SDS011;6737;51.480;11.962;2023-03-13T03:51:22;18.27;;;4.18;;
13335;SDS011;6737;51.480;11.962;2023-03-13T03:53:48;15.63;;;3.70;;
13335;SDS011;6737;51.480;11.962;2023-03-13T03:56:14;15.70;;;3.90;;
13335;SDS011;6737;51.480;11.962;2023-03-13T03:58:39;19.13;;;4.10;;
13335;SDS011;6737;51.480;11.962;2023-03-13T04:01:05;14.27;;;3.60;;
13335;SDS011;6737;51.480;11.962;2023-03-13T04:03:31;13.93;;;3.65;;
13335;SDS011;6737;51.480;11.962;2023-03-13T04:05:57;15.35;;;3.75;;
13335;SDS011;6737;51.480;11.962;2023-03-13T04:08:23;14.10;;;3.73;;
13335;SDS011;6737;51.480;11.962;2023-03-13T04:10:49;11.00;;;3.72;;
13335;SDS011;6737;51.480;11.962;2023-03-13T04:13:15;15.13;;;4.00;;
13335;SDS011;6737;51.480;11.962;2023-03-13T04:15:41;16.38;;;4.13;;
13335;SDS011;6737;51.480;11.962;2023-03-13T04:18:07;16.30;;;3.90;;
13335;SDS011;6737;51.480;11.962;2023-03-13T04:20:33;15.80;;;3.67;;
13335;SDS011;6737;51.480;11.962;2023-03-13T04:23:00;14.35;;;3.58;;
13335;SDS011;6737;51.480;11.962;2023-03-13T04:25:26;14.67;;;3.70;;
13335;SDS011;6737;51.480;11.962;2023-03-13T04:27:52;13.93;;;3.60;;
13335;SDS011;6737;51.480;11.962;2023-03-13T04:30:18;13.98;;;3.75;;
13335;SDS011;6737;51.480;11.962;2023-03-13T04:32:44;16.05;;;3.80;;
13335;SDS011;6737;51.480;11.962;2023-03-13T04:35:09;15.43;;;3.77;;
13335;SDS011;6737;51.480;11.962;2023-03-13T04:37:35;13.53;;;3.63;;
13335;SDS011;6737;51.480;11.962;2023-03-13T04:40:01;13.18;;;3.75;;
13335;SDS011;6737;51.480;11.962;2023-03-13T04:42:27;13.73;;;3.40;;
13335;SDS011;6737;51.480;11.962;2023-03-13T04:44:53;13.45;;;3.53;;
13335;SDS011;6737;51.480;11.962;2023-03-13T04:47:19;16.40;;;3.70;;
13335;SDS011;6737;51.480;11.962;2023-03-13T04:49:44;15.55;;;4.05;;
13335;SDS011;6737;51.480;11.962;2023-03-13T04:52:10;17.20;;;3.92;;
13335;SDS011;6737;51.480;11.962;2023-03-13T04:54:36;15.30;;;3.88;;
13335;SDS011;6737;51.480;11.962;2023-03-13T04:57:02;13.27;;;3.72;;
13335;SDS011;6737;51.480;11.962;2023-03-13T04:59:28;15.48;;;3.88;;
13335;SDS011;6737;51.480;11.962;2023-03-13T05:01:55;12.80;;;3.45;;
13335;SDS011;6737;51.480;11.962;2023-03-13T05:04:21;15.43;;;4.10;;
13335;SDS011;6737;51.480;11.962;2023-03-13T05:06:46;15.25;;;4.10;;
13335;SDS011;6737;51.480;11.962;2023-03-13T05:09:12;14.67;;;3.90;;
13335;SDS011;6737;51.480;11.962;2023-03-13T05:11:38;17.37;;;3.73;;
13335;SDS011;6737;51.480;11.962;2023-03-13T05:14:06;15.25;;;4.00;;
13335;SDS011;6737;51.480;11.962;2023-03-13T05:16:35;13.10;;;3.92;;
13335;SDS011;6737;51.480;11.962;2023-03-13T05:19:02;17.38;;;3.83;;
13335;SDS011;6737;51.480;11.962;2023-03-13T05:21:27;14.67;;;3.73;;
13335;SDS011;6737;51.480;11.962;2023-03-13T05:23:53;17.05;;;4.03;;
13335;SDS011;6737;51.480;11.962;2023-03-13T05:26:19;14.93;;;3.88;;
13335;SDS011;6737;51.480;11.962;2023-03-13T05:28:45;15.20;;;4.27;;
13335;SDS011;6737;51.480;11.962;2023-03-13T05:31:11;16.30;;;4.05;;
13335;SDS011;6737;51.480;11.962;2023-03-13T05:33:36;15.88;;;3.88;;
13335;SDS011;6737;51.480;11.962;2023-03-13T05:36:02;14.80;;;3.90;;
13335;SDS011;6737;51.480;11.962;2023-03-13T05:38:28;13.85;;;4.00;;
13335;SDS011;6737;51.480;11.962;2023-03-13T05:40:54;14.27;;;4.20;;
13335;SDS011;6737;51.480;11.962;2023-03-13T05:43:20;13.68;;;3.90;;
13335;SDS011;6737;51.480;11.962;2023-03-13T05:45:45;18.80;;;4.72;;
13335;SDS011;6737;51.480;11.962;2023-03-13T05:48:11;18.53;;;4.20;;
13335;SDS011;6737;51.480;11.962;2023-03-13T05:50:37;18.13;;;4.10;;
13335;SDS011;6737;51.480;11.962;2023-03-13T05:53:02;16.42;;;3.80;;
13335;SDS011;6737;51.480;11.962;2023-03-13T05:55:28;17.33;;;3.90;;
13335;SDS011;6737;51.480;11.962;2023-03-13T05:57:54;15.25;;;3.83;;
13335;SDS011;6737;51.480;11.962;2023-03-13T06:00:20;17.05;;;3.80;;
13335;SDS011;6737;51.480;11.962;2023-03-13T06:02:46;19.77;;;4.10;;
13335;SDS011;6737;51.480;11.962;2023-03-13T06:05:12;16.87;;;4.20;;
13335;SDS011;6737;51.480;11.962;2023-03-13T06:07:37;14.57;;;3.93;;
13335;SDS011;6737;51.480;11.962;2023-03-13T06:10:03;15.07;;;3.75;;
13335;SDS011;6737;51.480;11.962;2023-03-13T06:12:30;17.33;;;4.10;;
13335;SDS011;6737;51.480;11.962;2023-03-13T06:14:55;15.57;;;4.00;;
13335;SDS011;6737;51.480;11.962;2023-03-13T06:17:21;16.73;;;4.00;;
13335;SDS011;6737;51.480;11.962;2023-03-13T06:19:47;15.70;;;3.33;;
13335;SDS011;6737;51.480;11.962;2023-03-13T06:22:12;20.65;;;4.22;;
13335;SDS011;6737;51.480;11.962;2023-03-13T06:24:41;20.85;;;4.38;;
13335;SDS011;6737;51.480;11.962;2023-03-13T06:27:09;16.52;;;4.15;;
13335;SDS011;6737;51.480;11.962;2023-03-13T06:29:35;19.73;;;4.28;;
13335;SDS011;6737;51.480;11.962;2023-03-13T06:32:01;18.58;;;4.00;;
13335;SDS011;6737;51.480;11.962;2023-03-13T06:34:26;16.30;;;3.83;;
13335;SDS011;6737;51.480;11.962;2023-03-13T06:36:52;15.88;;;3.97;;
13335;SDS011;6737;51.480;11.962;2023-03-13T06:39:18;15.00;;;3.75;;
13335;SDS011;6737;51.480;11.962;2023-03-13T06:41:44;14.67;;;3.57;;
13335;SDS011;6737;51.480;11.962;2023-03-13T06:44:09;17.08;;;3.90;;
13335;SDS011;6737;51.480;11.962;2023-03-13T06:46:36;11.70;;;3.50;;
13335;SDS011;6737;51.480;11.962;2023-03-13T06:49:02;14.57;;;3.83;;
13335;SDS011;6737;51.480;11.962;2023-03-13T06:51:30;15.25;;;3.80;;
13335;SDS011;6737;51.480;11.962;2023-03-13T06:53:56;13.77;;;3.45;;
13335;SDS011;6737;51.480;11.962;2023-03-13T06:56:22;17.13;;;3.90;;
13335;SDS011;6737;51.480;11.962;2023-03-13T06:58:48;13.18;;;3.60;;
13335;SDS011;6737;51.480;11.962;2023-03-13T07:01:14;17.08;;;4.18;;
13335;SDS011;6737;51.480;11.962;2023-03-13T07:03:41;15.37;;;3.73;;
13335;SDS011;6737;51.480;11.962;2023-03-13T07:06:09;15.85;;;3.83;;
13335;SDS011;6737;51.480;11.962;2023-03-13T07:08:36;15.13;;;3.53;;
13335;SDS011;6737;51.480;11.962;2023-03-13T07:11:04;13.77;;;3.70;;
13335;SDS011;6737;51.480;11.962;2023-03-13T07:13:34;13.23;;;3.40;;
13335;SDS011;6737;51.480;11.962;2023-03-13T07:16:04;11.82;;;3.22;;
13335;SDS011;6737;51.480;11.962;2023-03-13T07:18:32;12.63;;;3.30;;
13335;SDS011;6737;51.480;11.962;2023-03-13T07:20:59;12.70;;;3.15;;
13335;SDS011;6737;51.480;11.962;2023-03-13T07:23:29;10.10;;;2.67;;
13335;SDS011;6737;51.480;11.962;2023-03-13T07:26:00;7.15;;;2.40;;
13335;SDS011;6737;51.480;11.962;2023-03-13T07:28:28;7.78;;;2.20;;
13335;SDS011;6737;51.480;11.962;2023-03-13T07:31:01;6.88;;;1.92;;
13335;SDS011;6737;51.480;11.962;2023-03-13T07:33:28;9.23;;;1.90;;
13335;SDS011;6737;51.480;11.962;2023-03-13T07:35:54;5.25;;;1.73;;
13335;SDS011;6737;51.480;11.962;2023-03-13T07:38:20;5.40;;;1.90;;
13335;SDS011;6737;51.480;11.962;2023-03-13T07:40:46;4.15;;;1.48;;
13335;SDS011;6737;51.480;11.962;2023-03-13T07:43:17;4.47;;;1.60;;
13335;SDS011;6737;51.480;11.962;2023-03-13T07:45:59;4.30;;;1.30;;
13335;SDS011;6737;51.480;11.962;2023-03-13T07:48:30;4.07;;;1.50;;
13335;SDS011;6737;51.480;11.962;2023-03-13T07:51:01;4.47;;;1.13;;
13335;SDS011;6737;51.480;11.962;2023-03-13T07:53:28;3.10;;;0.90;;
13335;SDS011;6737;51.480;11.962;2023-03-13T07:55:58;3.43;;;1.20;;
13335;SDS011;6737;51.480;11.962;2023-03-13T07:58:33;4.80;;;1.20;;
13335;SDS011;6737;51.480;11.962;2023-03-13T08:01:05;3.70;;;1.20;;
13335;SDS011;6737;51.480;11.962;2023-03-13T08:03:34;3.00;;;1.20;;
13335;SDS011;6737;51.480;11.962;2023-03-13T08:06:02;2.10;;;0.70;;
13335;SDS011;6737;51.480;11.962;2023-03-13T08:08:30;2.50;;;1.10;;
13335;SDS011;6737;51.480;11.962;2023-03-13T08:11:00;3.40;;;0.90;;
13335;SDS011;6737;51.480;11.962;2023-03-13T08:13:37;2.80;;;1.00;;
13335;SDS011;6737;51.480;11.962;2023-03-13T08:16:06;1.83;;;0.90;;
13335;SDS011;6737;51.480;11.962;2023-03-13T08:18:41;2.77;;;1.00;;
13335;SDS011;6737;51.480;11.962;2023-03-13T08:21:10;2.40;;;1.00;;
13335;SDS011;6737;51.480;11.962;2023-03-13T08:23:37;3.87;;;1.10;;
13335;SDS011;6737;51.480;11.962;2023-03-13T08:26:04;1.87;;;1.10;;
13335;SDS011;6737;51.480;11.962;2023-03-13T08:28:32;2.90;;;1.00;;
13335;SDS011;6737;51.480;11.962;2023-03-13T08:31:21;2.70;;;0.90;;
13335;SDS011;6737;51.480;11.962;2023-03-13T08:34:18;3.20;;;0.90;;
13335;SDS011;6737;51.480;11.962;2023-03-13T08:36:44;3.47;;;0.90;;
13335;SDS011;6737;51.480;11.962;2023-03-13T08:39:11;2.23;;;1.10;;
13335;SDS011;6737;51.480;11.962;2023-03-13T08:41:39;2.43;;;0.90;;
13335;SDS011;6737;51.480;11.962;2023-03-13T08:44:06;2.43;;;1.00;;
13335;SDS011;6737;51.480;11.962;2023-03-13T08:46:34;2.17;;;0.93;;
13335;SDS011;6737;51.480;11.962;2023-03-13T08:49:02;0.93;;;0.80;;
13335;SDS011;6737;51.480;11.962;2023-03-13T08:51:29;3.03;;;1.00;;
13335;SDS011;6737;51.480;11.962;2023-03-13T08:53:55;1.63;;;0.90;;
13335;SDS011;6737;51.480;11.962;2023-03-13T08:56:22;1.90;;;0.80;;
13335;SDS011;6737;51.480;11.962;2023-03-13T08:58:50;2.27;;;0.90;;
13335;SDS011;6737;51.480;11.962;2023-03-13T09:01:20;1.77;;;0.80;;
13335;SDS011;6737;51.480;11.962;2023-03-13T09:03:48;2.07;;;0.90;;
13335;SDS011;6737;51.480;11.962;2023-03-13T09:06:14;2.50;;;1.00;;
13335;SDS011;6737;51.480;11.962;2023-03-13T09:08:40;1.47;;;0.70;;
13335;SDS011;6737;51.480;11.962;2023-03-13T09:11:07;1.70;;;1.00;;
13335;SDS011;6737;51.480;11.962;2023-03-13T09:13:39;3.60;;;0.80;;
13335;SDS011;6737;51.480;11.962;2023-03-13T09:16:08;1.77;;;1.00;;
13335;SDS011;6737;51.480;11.962;2023-03-13T09:18:37;1.40;;;0.90;;
13335;SDS011;6737;51.480;11.962;2023-03-13T09:21:05;3.60;;;1.13;;
13335;SDS011;6737;51.480;11.962;2023-03-13T09:23:33;2.70;;;1.13;;
13335;SDS011;6737;51.480;11.962;2023-03-13T09:25:59;2.67;;;0.90;;
13335;SDS011;6737;51.480;11.962;2023-03-13T09:28:25;1.63;;;1.00;;
13335;SDS011;6737;51.480;11.962;2023-03-13T09:30:52;2.30;;;1.10;;
13335;SDS011;6737;51.480;11.962;2023-03-13T09:33:19;2.10;;;1.03;;
13335;SDS011;6737;51.480;11.962;2023-03-13T09:35:49;2.40;;;1.20;;
13335;SDS011;6737;51.480;11.962;2023-03-13T09:38:17;3.33;;;1.03;;
13335;SDS011;6737;51.480;11.962;2023-03-13T09:40:46;1.67;;;1.00;;
13335;SDS011;6737;51.480;11.962;2023-03-13T09:44:00;3.43;;;0.87;;
13335;SDS011;6737;51.480;11.962;2023-03-13T09:46:14;1.40;;;1.00;;
13335;SDS011;6737;51.480;11.962;2023-03-13T09:48:53;1.63;;;1.00;;
13335;SDS011;6737;51.480;11.962;2023-03-13T09:51:27;1.80;;;0.90;;
13335;SDS011;6737;51.480;11.962;2023-03-13T09:54:04;1.27;;;0.87;;
13335;SDS011;6737;51.480;11.962;2023-03-13T09:56:42;1.00;;;0.80;;
13335;SDS011;6737;51.480;11.962;2023-03-13T10:02:31;1.07;;;0.70;;
13335;SDS011;6737;51.480;11.962;2023-03-13T10:05:19;0.90;;;0.80;;
13335;SDS011;6737;51.480;11.962;2023-03-13T10:07:47;1.77;;;0.80;;
13335;SDS011;6737;51.480;11.962;2023-03-13T10:10:14;1.40;;;0.70;;
13335;SDS011;6737;51.480;11.962;2023-03-13T10:12:48;1.80;;;0.80;;
13335;SDS011;6737;51.480;11.962;2023-03-13T10:15:31;0.97;;;0.80;;
13335;SDS011;6737;51.480;11.962;2023-03-13T10:18:25;0.80;;;0.80;;
13335;SDS011;6737;51.480;11.962;2023-03-13T10:20:57;0.80;;;0.80;;
13335;SDS011;6737;51.480;11.962;2023-03-13T10:26:00;2.40;;;0.80;;
13335;SDS011;6737;51.480;11.962;2023-03-13T10:28:25;1.00;;;0.83;;
13335;SDS011;6737;51.480;11.962;2023-03-13T10:31:01;2.30;;;0.70;;
13335;SDS011;6737;51.480;11.962;2023-03-13T10:33:35;1.33;;;1.00;;
13335;SDS011;6737;51.480;11.962;2023-03-13T10:36:09;1.20;;;0.90;;
13335;SDS011;6737;51.480;11.962;2023-03-13T10:38:54;1.10;;;0.90;;
13335;SDS011;6737;51.480;11.962;2023-03-13T10:41:30;2.10;;;0.93;;
13335;SDS011;6737;51.480;11.962;2023-03-13T10:44:03;1.60;;;0.90;;
13335;SDS011;6737;51.480;11.962;2023-03-13T10:46:34;0.87;;;0.87;;
13335;SDS011;6737;51.480;11.962;2023-03-13T10:49:10;1.00;;;0.90;;
13335;SDS011;6737;51.480;11.962;2023-03-13T10:51:45;1.43;;;1.07;;
13335;SDS011;6737;51.480;11.962;2023-03-13T10:54:14;2.47;;;0.90;;
13335;SDS011;6737;51.480;11.962;2023-03-13T10:56:52;1.00;;;0.80;;
13335;SDS011;6737;51.480;11.962;2023-03-13T10:59:52;1.10;;;0.95;;
13335;SDS011;6737;51.480;11.962;2023-03-13T11:02:25;1.10;;;1.00;;
13335;SDS011;6737;51.480;11.962;2023-03-13T11:04:55;1.30;;;0.90;;
13335;SDS011;6737;51.480;11.962;2023-03-13T11:07:36;1.47;;;0.90;;
13335;SDS011;6737;51.480;11.962;2023-03-13T11:10:21;1.10;;;0.90;;
13335;SDS011;6737;51.480;11.962;2023-03-13T11:12:49;0.80;;;0.80;;
13335;SDS011;6737;51.480;11.962;2023-03-13T11:15:22;1.20;;;0.80;;
13335;SDS011;6737;51.480;11.962;2023-03-13T11:20:56;1.10;;;1.00;;
13335;SDS011;6737;51.480;11.962;2023-03-13T11:26:09;1.20;;;1.05;;
13335;SDS011;6737;51.480;11.962;2023-03-13T11:31:47;1.48;;;1.08;;
13335;SDS011;6737;51.480;11.962;2023-03-13T11:34:20;2.10;;;1.10;;
13335;SDS011;6737;51.480;11.962;2023-03-13T11:36:55;2.13;;;1.10;;
13335;SDS011;6737;51.480;11.962;2023-03-13T11:39:49;1.45;;;1.15;;
13335;SDS011;6737;51.480;11.962;2023-03-13T11:48:23;2.20;;;1.42;;
13335;SDS011;6737;51.480;11.962;2023-03-13T11:51:08;2.33;;;1.02;;
13335;SDS011;6737;51.480;11.962;2023-03-13T12:02:20;1.65;;;0.90;;
13335;SDS011;6737;51.480;11.962;2023-03-13T12:05:02;1.30;;;1.20;;
13335;SDS011;6737;51.480;11.962;2023-03-13T12:07:38;1.45;;;1.10;;
13335;SDS011;6737;51.480;11.962;2023-03-13T12:10:29;1.25;;;1.10;;
13335;SDS011;6737;51.480;11.962;2023-03-13T12:13:06;1.90;;;1.05;;
13335;SDS011;6737;51.480;11.962;2023-03-13T12:16:22;1.63;;;1.20;;
13335;SDS011;6737;51.480;11.962;2023-03-13T12:18:35;1.60;;;0.93;;
13335;SDS011;6737;51.480;11.962;2023-03-13T12:21:16;1.58;;;1.05;;
13335;SDS011;6737;51.480;11.962;2023-03-13T12:24:03;1.10;;;1.00;;
13335;SDS011;6737;51.480;11.962;2023-03-13T12:29:57;1.42;;;1.08;;
13335;SDS011;6737;51.480;11.962;2023-03-13T12:35:31;2.05;;;1.00;;
13335;SDS011;6737;51.480;11.962;2023-03-13T12:40:48;1.95;;;1.10;;
13335;SDS011;6737;51.480;11.962;2023-03-13T12:43:35;2.25;;;1.15;;
13335;SDS011;6737;51.480;11.962;2023-03-13T12:54:40;2.05;;;1.17;;
13335;SDS011;6737;51.480;11.962;2023-03-13T12:57:29;2.72;;;1.10;;
13335;SDS011;6737;51.480;11.962;2023-03-13T13:00:24;1.42;;;1.10;;
13335;SDS011;6737;51.480;11.962;2023-03-13T13:05:57;3.78;;;1.27;;
13335;SDS011;6737;51.480;11.962;2023-03-13T13:08:33;4.25;;;1.27;;
13335;SDS011;6737;51.480;11.962;2023-03-13T13:16:35;1.92;;;1.23;;
13335;SDS011;6737;51.480;11.962;2023-03-13T13:24:57;2.88;;;1.30;;
13335;SDS011;6737;51.480;11.962;2023-03-13T13:29:56;1.52;;;1.15;;
13335;SDS011;6737;51.480;11.962;2023-03-13T13:35:04;2.75;;;1.17;;
13335;SDS011;6737;51.480;11.962;2023-03-13T13:37:43;3.05;;;1.20;;
13335;SDS011;6737;51.480;11.962;2023-03-13T13:42:48;2.35;;;1.23;;
13335;SDS011;6737;51.480;11.962;2023-03-13T13:47:41;1.92;;;1.10;;
13335;SDS011;6737;51.480;11.962;2023-03-13T13:52:49;1.98;;;1.27;;
13335;SDS011;6737;51.480;11.962;2023-03-13T14:00:57;2.10;;;1.23;;
13335;SDS011;6737;51.480;11.962;2023-03-13T14:03:36;1.38;;;1.27;;
13335;SDS011;6737;51.480;11.962;2023-03-13T14:06:16;1.80;;;1.10;;
13335;SDS011;6737;51.480;11.962;2023-03-13T14:08:45;4.47;;;1.20;;
13335;SDS011;6737;51.480;11.962;2023-03-13T14:16:36;2.33;;;1.10;;
13335;SDS011;6737;51.480;11.962;2023-03-13T14:19:03;1.30;;;1.20;;
13335;SDS011;6737;51.480;11.962;2023-03-13T14:21:29;2.22;;;1.10;;
13335;SDS011;6737;51.480;11.962;2023-03-13T14:23:55;2.00;;;1.10;;
13335;SDS011;6737;51.480;11.962;2023-03-13T14:26:21;1.05;;;0.98;;
13335;SDS011;6737;51.480;11.962;2023-03-13T14:29:34;1.98;;;1.20;;
13335;SDS011;6737;51.480;11.962;2023-03-13T14:31:54;1.48;;;1.23;;
13335;SDS011;6737;51.480;11.962;2023-03-13T14:34:21;1.45;;;1.27;;
13335;SDS011;6737;51.480;11.962;2023-03-13T14:44:30;2.85;;;1.15;;
13335;SDS011;6737;51.480;11.962;2023-03-13T14:47:43;2.00;;;1.00;;
13335;SDS011;6737;51.480;11.962;2023-03-13T14:49:57;1.50;;;1.27;;
13335;SDS011;6737;51.480;11.962;2023-03-13T14:52:26;1.95;;;1.10;;
13335;SDS011;6737;51.480;11.962;2023-03-13T14:54:55;1.40;;;1.00;;
13335;SDS011;6737;51.480;11.962;2023-03-13T14:57:22;1.38;;;1.10;;
13335;SDS011;6737;51.480;11.962;2023-03-13T14:59:51;2.55;;;1.10;;
13335;SDS011;6737;51.480;11.962;2023-03-13T15:02:36;1.38;;;1.00;;
13335;SDS011;6737;51.480;11.962;2023-03-13T15:05:03;1.50;;;1.08;;
13335;SDS011;6737;51.480;11.962;2023-03-13T15:07:41;2.05;;;1.10;;
13335;SDS011;6737;51.480;11.962;2023-03-13T15:10:19;2.90;;;1.20;;
13335;SDS011;6737;51.480;11.962;2023-03-13T15:12:50;1.70;;;1.10;;
13335;SDS011;6737;51.480;11.962;2023-03-13T15:15:16;1.20;;;1.10;;
13335;SDS011;6737;51.480;11.962;2023-03-13T15:17:42;1.27;;;1.15;;
13335;SDS011;6737;51.480;11.962;2023-03-13T15:20:12;1.48;;;1.10;;
13335;SDS011;6737;51.480;11.962;2023-03-13T15:22:40;1.98;;;1.08;;
13335;SDS011;6737;51.480;11.962;2023-03-13T15:25:30;2.53;;;1.10;;
13335;SDS011;6737;51.480;11.962;2023-03-13T15:27:54;2.60;;;1.13;;
13335;SDS011;6737;51.480;11.962;2023-03-13T15:30:21;1.85;;;1.25;;
13335;SDS011;6737;51.480;11.962;2023-03-13T15:32:47;2.00;;;1.10;;
13335;SDS011;6737;51.480;11.962;2023-03-13T15:37:51;2.50;;;1.20;;
13335;SDS011;6737;51.480;11.962;2023-03-13T15:40:17;1.85;;;1.33;;
13335;SDS011;6737;51.480;11.962;2023-03-13T15:42:44;1.17;;;1.02;;
13335;SDS011;6737;51.480;11.962;2023-03-13T15:45:10;4.25;;;1.15;;
13335;SDS011;6737;51.480;11.962;2023-03-13T15:47:36;2.80;;;1.30;;
13335;SDS011;6737;51.480;11.962;2023-03-13T15:50:02;2.20;;;1.13;;
13335;SDS011;6737;51.480;11.962;2023-03-13T15:52:28;1.77;;;1.10;;
13335;SDS011;6737;51.480;11.962;2023-03-13T15:54:55;1.30;;;1.20;;
13335;SDS011;6737;51.480;11.962;2023-03-13T15:57:21;1.52;;;1.30;;
13335;SDS011;6737;51.480;11.962;2023-03-13T15:59:50;1.42;;;1.10;;
13335;SDS011;6737;51.480;11.962;2023-03-13T16:02:18;1.80;;;1.20;;
13335;SDS011;6737;51.480;11.962;2023-03-13T16:04:46;1.75;;;1.20;;
13335;SDS011;6737;51.480;11.962;2023-03-13T16:07:13;1.30;;;1.20;;
13335;SDS011;6737;51.480;11.962;2023-03-13T16:09:40;1.80;;;1.30;;
13335;SDS011;6737;51.480;11.962;2023-03-13T16:12:08;1.85;;;1.27;;
13335;SDS011;6737;51.480;11.962;2023-03-13T16:14:36;2.45;;;1.30;;
13335;SDS011;6737;51.480;11.962;2023-03-13T16:17:03;1.73;;;1.20;;
13335;SDS011;6737;51.480;11.962;2023-03-13T16:19:38;2.47;;;1.30;;
13335;SDS011;6737;51.480;11.962;2023-03-13T16:22:04;5.68;;;1.40;;
13335;SDS011;6737;51.480;11.962;2023-03-13T16:24:29;3.20;;;1.48;;
13335;SDS011;6737;51.480;11.962;2023-03-13T16:26:55;1.85;;;1.27;;
13335;SDS011;6737;51.480;11.962;2023-03-13T16:29:21;1.73;;;1.30;;
13335;SDS011;6737;51.480;11.962;2023-03-13T16:31:47;3.10;;;1.40;;
13335;SDS011;6737;51.480;11.962;2023-03-13T16:34:12;1.30;;;1.20;;
13335;SDS011;6737;51.480;11.962;2023-03-13T16:36:38;1.50;;;1.30;;